Cinque Terre — IUTV — position and weather

sailwx.info

Track history (hours):
 
Tides and Currents Weather Stations Pressure Air Temp Water Temp Dewpoint Dewpoint Depression Visibility Wind Speed Wind Dir Waves Ship Positions

Cinque Terre

Last reported at 2015-Aug-01 16:24 UTC. Time now 2015-Aug-02 06:21 UTC.
Position N 40°37' E 014°20'.

Length 15 m; draft 1 m.

Type: Passenger vessel. MMSI: 247208400.

Date/timePositionNaut miles runAvg speedWind from/ knotsBaromVisibWave heightAir tempDewpointWater temp
2015-Aug-01 16:24N 40°37' E 014°20'0 0.1
2015-Aug-01 15:33N 40°37' E 014°20'6 4.6
2015-Aug-01 14:18N 40°32' E 014°15'1 1.4
2015-Aug-01 13:33N 40°33' E 014°15'2 0.3
2015-Aug-01 07:33N 40°35' E 014°17'5 4.1
2015-Aug-01 06:22N 40°38' E 014°21'2 0.1
2015-Jul-31 16:13N 40°37' E 014°20'0 0.0
2015-Jul-31 15:33N 40°37' E 014°20'6 4.8
2015-Jul-31 14:22N 40°32' E 014°15'1 1.3
2015-Jul-31 13:34N 40°33' E 014°15'0 0.1
2015-Jul-31 11:33N 40°33' E 014°15'4 3.5
2015-Jul-31 10:28N 40°37' E 014°17'6 3.0
2015-Jul-31 08:33N 40°42' E 014°19'9 9.2
2015-Jul-31 07:33N 40°34' E 014°15'6 6.2
2015-Jul-31 06:32N 40°38' E 014°21'2 0.1
2015-Jul-30 16:33N 40°37' E 014°20'1 0.6
2015-Jul-30 15:31N 40°36' E 014°19'4 2.1
2015-Jul-30 13:33N 40°34' E 014°15'1 0.1
2015-Jul-30 08:33N 40°33' E 014°16'1 0.8
2015-Jul-30 07:31N 40°33' E 014°15'7 6.7
2015-Jul-30 06:28N 40°38' E 014°21'2 0.1
2015-Jul-29 16:13N 40°37' E 014°20'0 0.0
2015-Jul-29 15:33N 40°37' E 014°20'8 5.7
2015-Jul-29 14:12N 40°32' E 014°12'3 4.6
2015-Jul-29 13:34N 40°34' E 014°15'0 0.0
2015-Jul-29 07:33N 40°33' E 014°15'6 6.2
2015-Jul-29 06:33N 40°38' E 014°21'1 0.1
2015-Jul-28 17:16N 40°37' E 014°20'0 0.0
2015-Jul-28 16:33N 40°37' E 014°20'2 1.7
2015-Jul-28 15:31N 40°38' E 014°21'9 6.3
2015-Jul-28 14:04N 40°33' E 014°12'3 4.9
2015-Jul-28 13:33N 40°33' E 014°15'1 0.2
2015-Jul-28 08:10N 40°33' E 014°16'1 1.4
2015-Jul-28 07:33N 40°34' E 014°15'6 6.3
2015-Jul-28 06:33N 40°38' E 014°21'2 1.8
2015-Jul-28 05:34N 40°37' E 014°20'0 0.0
2015-Jul-27 16:33N 40°37' E 014°20'0 0.0
2015-Jul-27 15:33N 40°37' E 014°20'8 5.2
2015-Jul-27 14:07N 40°33' E 014°11'3 5.0
2015-Jul-27 13:33N 40°34' E 014°15'1 0.1
2015-Jul-27 08:26N 40°34' E 014°16'1 1.3
2015-Jul-27 07:30N 40°35' E 014°17'3 0.2
2015-Jul-26 16:28N 40°37' E 014°20'0 0.1
2015-Jul-26 15:33N 40°37' E 014°20'8 5.5
2015-Jul-26 14:09N 40°32' E 014°12'3 4.5
2015-Jul-26 13:33N 40°33' E 014°15'0 0.0
2015-Jul-26 07:33N 40°33' E 014°15'7 6.8
2015-Jul-26 06:33N 40°38' E 014°21'2 0.1
2015-Jul-25 16:33N 40°37' E 014°20'1 1.2
2015-Jul-25 15:33N 40°36' E 014°19'4 1.8
2015-Jul-25 13:33N 40°34' E 014°15'0 0.0
2015-Jul-25 07:33N 40°34' E 014°15'7 6.7
2015-Jul-25 06:33N 40°38' E 014°21'2 0.1
2015-Jul-24 16:06N 40°37' E 014°20'0 0.2
2015-Jul-24 15:30N 40°37' E 014°20'7 7.7
2015-Jul-24 14:31N 40°33' E 014°12'2 2.5
2015-Jul-24 13:33N 40°33' E 014°15'1 0.2
2015-Jul-24 08:04N 40°34' E 014°16'1 2.5
2015-Jul-24 07:32N 40°35' E 014°17'4 4.5
2015-Jul-24 06:33N 40°38' E 014°21'1 0.1
2015-Jul-23 15:33N 40°37' E 014°20'5 2.5
2015-Jul-23 13:33N 40°34' E 014°15'0 0.0
2015-Jul-23 07:33N 40°34' E 014°15'  
Track history (hours):
 
Tides and Currents Weather Stations Pressure Air Temp Water Temp Dewpoint Dewpoint Depression Visibility Wind Speed Wind Dir Waves Ship Positions

Cinque Terre

Last reported at 2015-Aug-01 16:24 UTC. Time now 2015-Aug-02 06:21 UTC.
Position N 40°37' E 014°20'.

Length 15 m; draft 1 m.

Type: Passenger vessel. MMSI: 247208400.

Date/timePositionNaut miles runAvg speedWind from/ knotsBaromVisibWave heightAir tempDewpointWater temp
2015-Aug-01 16:24N 40°37' E 014°20'0 0.1
2015-Aug-01 15:33N 40°37' E 014°20'6 4.6
2015-Aug-01 14:18N 40°32' E 014°15'1 1.4
2015-Aug-01 13:33N 40°33' E 014°15'2 0.3
2015-Aug-01 07:33N 40°35' E 014°17'5 4.1
2015-Aug-01 06:22N 40°38' E 014°21'2 0.1
2015-Jul-31 16:13N 40°37' E 014°20'0 0.0
2015-Jul-31 15:33N 40°37' E 014°20'6 4.8
2015-Jul-31 14:22N 40°32' E 014°15'1 1.3
2015-Jul-31 13:34N 40°33' E 014°15'0 0.1
2015-Jul-31 11:33N 40°33' E 014°15'4 3.5
2015-Jul-31 10:28N 40°37' E 014°17'6 3.0
2015-Jul-31 08:33N 40°42' E 014°19'9 9.2
2015-Jul-31 07:33N 40°34' E 014°15'6 6.2
2015-Jul-31 06:32N 40°38' E 014°21'2 0.1
2015-Jul-30 16:33N 40°37' E 014°20'1 0.6
2015-Jul-30 15:31N 40°36' E 014°19'4 2.1
2015-Jul-30 13:33N 40°34' E 014°15'1 0.1
2015-Jul-30 08:33N 40°33' E 014°16'1 0.8
2015-Jul-30 07:31N 40°33' E 014°15'7 6.7
2015-Jul-30 06:28N 40°38' E 014°21'2 0.1
2015-Jul-29 16:13N 40°37' E 014°20'0 0.0
2015-Jul-29 15:33N 40°37' E 014°20'8 5.7
2015-Jul-29 14:12N 40°32' E 014°12'3 4.6
2015-Jul-29 13:34N 40°34' E 014°15'0 0.0
2015-Jul-29 07:33N 40°33' E 014°15'6 6.2
2015-Jul-29 06:33N 40°38' E 014°21'1 0.1
2015-Jul-28 17:16N 40°37' E 014°20'0 0.0
2015-Jul-28 16:33N 40°37' E 014°20'2 1.7
2015-Jul-28 15:31N 40°38' E 014°21'9 6.3
2015-Jul-28 14:04N 40°33' E 014°12'3 4.9
2015-Jul-28 13:33N 40°33' E 014°15'1 0.2
2015-Jul-28 08:10N 40°33' E 014°16'1 1.4
2015-Jul-28 07:33N 40°34' E 014°15'6 6.3
2015-Jul-28 06:33N 40°38' E 014°21'2 1.8
2015-Jul-28 05:34N 40°37' E 014°20'0 0.0
2015-Jul-27 16:33N 40°37' E 014°20'0 0.0
2015-Jul-27 15:33N 40°37' E 014°20'8 5.2
2015-Jul-27 14:07N 40°33' E 014°11'3 5.0
2015-Jul-27 13:33N 40°34' E 014°15'1 0.1
2015-Jul-27 08:26N 40°34' E 014°16'1 1.3
2015-Jul-27 07:30N 40°35' E 014°17'3 0.2
2015-Jul-26 16:28N 40°37' E 014°20'0 0.1
2015-Jul-26 15:33N 40°37' E 014°20'8 5.5
2015-Jul-26 14:09N 40°32' E 014°12'3 4.5
2015-Jul-26 13:33N 40°33' E 014°15'0 0.0
2015-Jul-26 07:33N 40°33' E 014°15'7 6.8
2015-Jul-26 06:33N 40°38' E 014°21'2 0.1
2015-Jul-25 16:33N 40°37' E 014°20'1 1.2
2015-Jul-25 15:33N 40°36' E 014°19'4 1.8
2015-Jul-25 13:33N 40°34' E 014°15'0 0.0
2015-Jul-25 07:33N 40°34' E 014°15'7 6.7
2015-Jul-25 06:33N 40°38' E 014°21'2 0.1
2015-Jul-24 16:06N 40°37' E 014°20'0 0.2
2015-Jul-24 15:30N 40°37' E 014°20'7 7.7
2015-Jul-24 14:31N 40°33' E 014°12'2 2.5
2015-Jul-24 13:33N 40°33' E 014°15'1 0.2
2015-Jul-24 08:04N 40°34' E 014°16'1 2.5
2015-Jul-24 07:32N 40°35' E 014°17'4 4.5
2015-Jul-24 06:33N 40°38' E 014°21'1 0.1
2015-Jul-23 15:33N 40°37' E 014°20'5 2.5
2015-Jul-23 13:33N 40°34' E 014°15'0 0.0
2015-Jul-23 07:33N 40°34' E 014°15'  

Dump ship's entire track history